Time;durP1;ratioP1;P1;durP2;ratioP2;P2;SDS_P1;SDS_P2;PMS_P1;PMS_P2;Temp;Humidity;BMP_temperature;BMP_pressure;BME280_temperature;BME280_humidity;BME280_pressure;Samples;Min_cycle;Max_cycle;Signal;HPM_P1;HPM_P2
2024/04/10 00:00:13;;;;;;;8.52;2.13;;;;;;;15.26;100.00;100480.38;5456500;26;20022;-67
2024/04/10 00:02:40;;;;;;;6.30;1.85;;;;;;;15.28;100.00;100473.94;5470791;26;20034;-67
2024/04/10 00:05:06;;;;;;;5.90;1.08;;;;;;;15.24;100.00;100475.28;5468663;26;20014;-67
2024/04/10 00:07:32;;;;;;;5.00;1.45;;;;;;;15.28;100.00;100468.69;5466339;26;20025;-67
2024/04/10 00:09:57;;;;;;;3.67;1.10;;;;;;;15.25;100.00;100470.84;5468372;26;20466;-67
2024/04/10 00:12:23;;;;;;;2.95;1.27;;;;;;;15.28;100.00;100470.50;5459596;26;20021;-67
2024/04/10 00:14:48;;;;;;;4.75;1.40;;;;;;;15.30;100.00;100468.53;5465748;26;20003;-67
2024/04/10 00:17:14;;;;;;;2.00;1.10;;;;;;;15.29;100.00;100459.00;5450775;26;20079;-66
2024/04/10 00:19:39;;;;;;;6.43;1.67;;;;;;;15.21;100.00;100459.06;5460457;26;20007;-67
2024/04/10 00:22:05;;;;;;;8.77;0.90;;;;;;;15.11;100.00;100450.63;5467317;26;20017;-67
2024/04/10 00:24:30;;;;;;;4.75;1.00;;;;;;;15.00;100.00;100451.84;5454329;26;20160;-66
2024/04/10 00:26:56;;;;;;;2.45;0.95;;;;;;;14.90;100.00;100444.19;5456448;26;20022;-66
2024/04/10 00:29:21;;;;;;;1.60;0.90;;;;;;;14.80;100.00;100445.38;5463324;26;20085;-67
2024/04/10 00:31:51;;;;;;;4.57;1.15;;;;;;;14.67;100.00;100445.94;5452946;26;20423;-67
2024/04/10 00:34:17;;;;;;;5.30;0.98;;;;;;;14.68;100.00;100449.38;5447469;26;20023;-67
2024/04/10 00:36:42;;;;;;;2.53;0.70;;;;;;;14.59;100.00;100443.38;5463400;26;20010;-67
2024/04/10 00:39:09;;;;;;;2.50;0.75;;;;;;;14.56;100.00;100446.34;5468075;26;20006;-67
2024/04/10 00:41:34;;;;;;;5.72;0.68;;;;;;;14.48;100.00;100441.94;5454673;26;20002;-67
2024/04/10 00:43:59;;;;;;;2.10;0.68;;;;;;;14.52;100.00;100442.44;5463598;26;20018;-66
2024/04/10 00:46:26;;;;;;;2.97;1.05;;;;;;;14.78;100.00;100437.69;5465592;26;20007;-67
2024/04/10 00:48:52;;;;;;;3.45;0.80;;;;;;;14.87;100.00;100439.28;5456793;26;20412;-67
2024/04/10 00:51:18;;;;;;;1.98;0.77;;;;;;;14.88;100.00;100443.53;5460883;26;20013;-67
2024/04/10 00:53:44;;;;;;;1.98;0.93;;;;;;;14.94;100.00;100434.97;5463138;26;20010;-67
2024/04/10 00:56:10;;;;;;;5.47;0.90;;;;;;;14.94;100.00;100440.22;5468461;26;20022;-67
2024/04/10 00:58:37;;;;;;;3.05;0.82;;;;;;;14.95;100.00;100438.44;5458221;26;20021;-67
2024/04/10 01:01:03;;;;;;;5.82;0.90;;;;;;;14.95;100.00;100438.44;5462720;26;20007;-67
2024/04/10 01:03:30;;;;;;;2.22;0.90;;;;;;;14.93;100.00;100435.97;5462731;26;20021;-67
2024/04/10 01:06:04;;;;;;;1.65;0.70;;;;;;;14.86;100.00;100440.28;5457831;26;20036;-66
2024/04/10 01:08:31;;;;;;;1.63;0.75;;;;;;;14.73;100.00;100429.53;5459134;26;20030;-66
2024/04/10 01:10:59;;;;;;;1.65;1.00;;;;;;;14.64;100.00;100430.56;5463830;26;20007;-67
2024/04/10 01:13:25;;;;;;;4.63;1.95;;;;;;;14.58;100.00;100429.47;5456572;26;20102;-66
2024/04/10 01:15:50;;;;;;;6.68;1.55;;;;;;;14.58;100.00;100434.69;5468779;26;20358;-67
2024/04/10 01:18:16;;;;;;;5.20;1.20;;;;;;;14.55;100.00;100434.22;5452630;26;20010;-67
2024/04/10 01:20:41;;;;;;;8.60;1.60;;;;;;;14.52;100.00;100431.94;5453847;26;20365;-67
2024/04/10 01:23:07;;;;;;;9.00;1.67;;;;;;;14.49;100.00;100435.72;5449019;26;21036;-67
2024/04/10 01:25:32;;;;;;;4.45;1.20;;;;;;;14.48;100.00;100430.66;5448038;26;20018;-67
2024/04/10 01:27:58;;;;;;;4.35;1.50;;;;;;;14.46;100.00;100425.56;5459476;26;20014;-67
2024/04/10 01:30:24;;;;;;;7.68;2.60;;;;;;;14.46;100.00;100419.50;5455772;26;20010;-67
2024/04/10 01:32:50;;;;;;;4.03;1.67;;;;;;;14.48;100.00;100430.66;5456727;26;20011;-67
2024/04/10 01:35:16;;;;;;;3.53;1.77;;;;;;;14.44;100.00;100431.97;5456861;26;20017;-66
2024/04/10 01:37:42;;;;;;;3.20;2.38;;;;;;;14.42;100.00;100428.69;5459989;26;20011;-66
2024/04/10 01:40:08;;;;;;;5.78;2.17;;;;;;;14.38;100.00;100420.31;5465883;26;20021;-67
2024/04/10 01:42:33;;;;;;;3.72;2.33;;;;;;;14.37;100.00;100420.50;5472484;26;20007;-66
2024/04/10 01:45:02;;;;;;;4.10;1.70;;;;;;;14.48;100.00;100422.78;5470110;26;20021;-66
2024/04/10 01:47:28;;;;;;;5.53;1.88;;;;;;;14.61;100.00;100425.69;5456701;26;20014;-66
2024/04/10 01:49:53;;;;;;;3.45;1.48;;;;;;;14.68;100.00;100426.59;5455964;26;20021;-67
2024/04/10 01:52:18;;;;;;;3.67;1.00;;;;;;;14.71;100.00;100423.63;5456684;26;20026;-66
2024/04/10 01:54:45;;;;;;;2.03;0.80;;;;;;;14.80;100.00;100425.22;5466415;26;20006;-67
2024/04/10 01:57:10;;;;;;;8.73;1.02;;;;;;;14.89;100.00;100426.81;5477726;26;20007;-66
2024/04/10 01:59:36;;;;;;;2.25;0.82;;;;;;;14.94;100.00;100432.38;5472683;26;20014;-67
2024/04/10 02:02:01;;;;;;;2.13;0.80;;;;;;;14.96;100.00;100424.31;5459632;26;20507;-67
2024/04/10 02:04:29;;;;;;;3.38;0.90;;;;;;;14.92;100.00;100423.84;5459212;26;20406;-67
2024/04/10 02:06:54;;;;;;;1.88;0.80;;;;;;;14.94;100.00;100426.31;5466283;26;20022;-66
2024/04/10 02:09:20;;;;;;;4.72;1.00;;;;;;;14.91;100.00;100416.97;5466611;26;20081;-67
2024/04/10 02:11:45;;;;;;;2.80;0.93;;;;;;;14.78;100.00;100411.47;5460582;26;20007;-66
2024/04/10 02:14:11;;;;;;;5.60;1.30;;;;;;;14.66;100.00;100415.47;5463124;26;20006;-67
2024/04/10 02:16:36;;;;;;;5.03;1.55;;;;;;;14.53;100.00;100402.13;5452243;26;20006;-66
2024/04/10 02:19:02;;;;;;;3.85;1.10;;;;;;;14.55;100.00;100400.13;5459219;26;20084;-67
2024/04/10 02:21:29;;;;;;;2.17;0.98;;;;;;;14.57;100.00;100406.84;5468042;26;20072;-67
2024/04/10 02:23:55;;;;;;;6.95;0.93;;;;;;;14.63;100.00;100407.16;5458779;26;20033;-67
2024/04/10 02:26:20;;;;;;;6.35;1.27;;;;;;;14.65;100.00;100403.34;5464292;26;20010;-67
2024/04/10 02:28:46;;;;;;;2.45;0.88;;;;;;;14.64;100.00;100412.22;5467032;26;20006;-68
2024/04/10 02:31:11;;;;;;;3.53;1.00;;;;;;;14.57;100.00;100406.03;5465099;26;20026;-67
2024/04/10 02:33:37;;;;;;;5.00;0.73;;;;;;;14.47;100.00;100413.28;5463984;26;20006;-68
2024/04/10 02:36:07;;;;;;;2.25;0.82;;;;;;;14.39;100.00;100415.91;5465471;26;20052;-67
2024/04/10 02:38:34;;;;;;;3.22;0.90;;;;;;;14.29;100.00;100403.81;5461281;26;20365;-68
2024/04/10 02:41:00;;;;;;;1.83;0.68;;;;;;;14.22;100.00;100400.22;5464823;26;20143;-67
2024/04/10 02:43:25;;;;;;;3.65;0.90;;;;;;;14.20;100.00;100412.69;5460988;26;20454;-67
2024/04/10 02:45:57;;;;;;;2.42;0.88;;;;;;;14.18;100.00;100404.19;5462833;26;20010;-67
2024/04/10 02:48:23;;;;;;;2.70;0.80;;;;;;;14.13;100.00;100411.75;5462279;26;20411;-66
2024/04/10 02:50:49;;;;;;;3.83;1.05;;;;;;;14.07;100.00;100406.38;5461898;26;20003;-67
2024/04/10 02:53:15;;;;;;;2.25;0.90;;;;;;;14.05;100.00;100405.72;5471142;26;20006;-67
2024/04/10 02:55:50;;;;;;;2.60;1.30;;;;;;;14.02;100.00;100404.25;5461776;26;20030;-67
2024/04/10 02:58:17;;;;;;;2.50;0.75;;;;;;;14.24;100.00;100406.13;5458753;26;20449;-67
2024/04/10 03:00:54;;;;;;;3.83;0.85;;;;;;;14.33;100.00;100400.84;5464116;26;20015;-67
2024/04/10 03:03:21;;;;;;;6.25;1.08;;;;;;;14.36;100.00;100403.13;5456501;26;21825;-67
2024/04/10 03:05:59;;;;;;;3.00;1.00;;;;;;;14.30;100.00;100407.25;5459716;26;20030;-67
2024/04/10 03:08:24;;;;;;;7.95;1.00;;;;;;;14.25;100.00;100412.19;5451678;26;20011;-67
2024/04/10 03:10:50;;;;;;;4.30;0.90;;;;;;;14.20;100.00;100407.44;5457041;26;20054;-66
2024/04/10 03:13:15;;;;;;;1.98;1.00;;;;;;;14.14;100.00;100402.09;5461179;26;20087;-67
2024/04/10 03:15:41;;;;;;;8.25;1.10;;;;;;;14.05;100.00;100395.25;5459192;26;20018;-66
2024/04/10 03:18:07;;;;;;;5.85;1.20;;;;;;;13.99;100.00;100388.88;5455729;26;20002;-67
2024/04/10 03:20:32;;;;;;;4.82;1.70;;;;;;;13.97;100.00;100390.03;5458298;26;20011;-67
2024/04/10 03:22:59;;;;;;;7.53;1.40;;;;;;;14.07;100.00;100391.47;5463070;26;20028;-67
2024/04/10 03:25:25;;;;;;;3.50;1.10;;;;;;;14.17;100.00;100396.50;5461622;26;20012;-66
2024/04/10 03:27:51;;;;;;;2.22;0.95;;;;;;;14.16;100.00;100400.94;5465969;26;20007;-66
2024/04/10 03:30:16;;;;;;;2.05;1.42;;;;;;;14.27;100.00;100394.47;5450841;26;20020;-67
2024/04/10 03:32:42;;;;;;;6.25;1.17;;;;;;;14.27;100.00;100403.16;5453225;26;20473;-66
2024/04/10 03:35:08;;;;;;;3.20;0.90;;;;;;;14.18;100.00;100406.78;5461406;26;20107;-66
2024/04/10 03:37:33;;;;;;;2.55;0.68;;;;;;;14.15;100.00;100408.97;5458339;26;20022;-66
2024/04/10 03:39:59;;;;;;;2.72;0.70;;;;;;;14.29;100.00;100408.25;5464613;26;20002;-66
2024/04/10 03:42:24;;;;;;;1.98;0.82;;;;;;;14.33;100.00;100416.56;5450791;26;20007;-67
2024/04/10 03:44:50;;;;;;;3.78;0.98;;;;;;;14.31;100.00;100413.31;5458828;26;20078;-66
2024/04/10 03:47:15;;;;;;;4.57;0.68;;;;;;;14.32;100.00;100420.19;5460064;26;20011;-66
2024/04/10 03:49:41;;;;;;;11.80;0.90;;;;;;;14.37;100.00;100426.56;5465850;26;20458;-67
2024/04/10 03:52:06;;;;;;;2.08;0.70;;;;;;;14.45;100.00;100426.56;5457022;26;20343;-67
2024/04/10 03:54:32;;;;;;;3.72;0.75;;;;;;;14.56;100.00;100425.38;5449933;26;20006;-67
2024/04/10 03:56:57;;;;;;;3.42;0.45;;;;;;;14.65;99.66;100420.91;5454373;26;20010;-67
2024/04/10 03:59:23;;;;;;;4.55;0.63;;;;;;;14.70;99.11;100419.38;5454242;26;20006;-66
2024/04/10 04:01:48;;;;;;;6.00;0.93;;;;;;;14.72;98.86;100412.16;5449213;26;20042;-66
2024/04/10 04:04:14;;;;;;;10.55;0.88;;;;;;;14.72;98.91;100417.41;5460663;26;20018;-67
2024/04/10 04:06:41;;;;;;;3.17;0.60;;;;;;;14.71;98.62;100418.38;5471677;26;20419;-67
2024/04/10 04:09:10;;;;;;;2.55;0.63;;;;;;;14.76;98.22;100421.31;5462207;26;20367;-66
2024/04/10 04:11:36;;;;;;;3.85;0.70;;;;;;;14.75;97.72;100414.44;5458741;26;20437;-67
2024/04/10 04:14:03;;;;;;;2.17;0.50;;;;;;;14.76;97.04;100415.25;5457369;26;20042;-67
2024/04/10 04:16:29;;;;;;;5.60;0.57;;;;;;;14.84;95.15;100420.44;5463236;26;20078;-67
2024/04/10 04:18:55;;;;;;;6.00;0.60;;;;;;;14.88;94.52;100427.81;5467785;26;20437;-67
2024/04/10 04:21:21;;;;;;;0.80;0.40;;;;;;;14.89;94.72;100421.56;5455131;26;20014;-66
2024/04/10 04:23:46;;;;;;;1.95;0.40;;;;;;;14.91;94.42;100424.84;5460949;26;20014;-67
2024/04/10 04:26:12;;;;;;;0.98;0.50;;;;;;;14.88;94.10;100430.44;5459151;26;20018;-66
2024/04/10 04:28:37;;;;;;;5.13;0.43;;;;;;;14.87;93.34;100435.84;5466018;26;20329;-66
2024/04/10 04:31:03;;;;;;;10.90;0.80;;;;;;;14.88;93.08;100443.53;5451780;26;20079;-67
2024/04/10 04:33:28;;;;;;;6.57;0.85;;;;;;;14.89;92.15;100445.19;5451201;26;20003;-66
2024/04/10 04:35:54;;;;;;;2.45;0.50;;;;;;;14.89;92.99;100439.94;5458350;26;20406;-66
2024/04/10 04:38:20;;;;;;;1.83;0.68;;;;;;;14.87;93.41;100447.16;5458011;26;20066;-66
2024/04/10 04:40:45;;;;;;;6.50;0.90;;;;;;;14.85;94.11;100453.56;5466930;26;20007;-66
2024/04/10 04:43:11;;;;;;;6.78;0.63;;;;;;;14.85;94.92;100454.38;5452943;26;20022;-67
2024/04/10 04:45:37;;;;;;;3.40;0.60;;;;;;;14.82;95.51;100459.97;5455276;26;20006;-67
2024/04/10 04:48:07;;;;;;;2.08;0.60;;;;;;;14.76;95.13;100458.03;5462813;26;20441;-67
2024/04/10 04:50:34;;;;;;;2.30;0.88;;;;;;;14.73;96.05;100455.75;5454336;26;20018;-67
2024/04/10 04:52:59;;;;;;;2.25;0.90;;;;;;;14.71;96.90;100452.47;5450884;26;20007;-68
2024/04/10 04:55:25;;;;;;;4.22;0.80;;;;;;;14.71;96.08;100452.47;5462698;26;20007;-67
2024/04/10 04:57:51;;;;;;;5.15;0.60;;;;;;;14.69;96.65;100457.06;5464554;26;20172;-67
2024/04/10 05:00:19;;;;;;;2.38;0.70;;;;;;;14.66;96.81;100467.91;5459991;26;20015;-67
2024/04/10 05:02:46;;;;;;;2.88;0.55;;;;;;;14.71;98.45;100473.47;5454003;26;20030;-68
2024/04/10 05:05:13;;;;;;;1.85;0.50;;;;;;;14.72;97.06;100472.47;5461202;26;20025;-67
2024/04/10 05:07:40;;;;;;;5.78;0.65;;;;;;;14.71;98.89;100470.84;5458799;26;20017;-67
2024/04/10 05:10:05;;;;;;;4.60;0.75;;;;;;;14.69;98.97;100474.63;5464442;26;20033;-70
2024/04/10 05:12:32;;;;;;;1.90;0.60;;;;;;;14.66;97.47;100474.94;5465782;26;20018;-67
2024/04/10 05:14:57;;;;;;;2.80;1.08;;;;;;;14.70;97.79;100482.31;5466883;26;20003;-68
2024/04/10 05:17:23;;;;;;;3.92;0.60;;;;;;;14.76;96.76;100481.63;5470190;26;20024;-68
2024/04/10 05:19:48;;;;;;;3.38;0.75;;;;;;;14.84;96.13;100489.47;5468835;26;20347;-67
2024/04/10 05:22:14;;;;;;;4.75;0.82;;;;;;;14.91;95.39;100487.78;5469881;26;20034;-68
2024/04/10 05:24:41;;;;;;;1.75;0.60;;;;;;;14.96;93.64;100486.47;5460702;26;20010;-67
2024/04/10 05:27:09;;;;;;;1.98;0.60;;;;;;;15.00;93.18;100491.19;5463127;26;20021;-67
2024/04/10 05:29:35;;;;;;;4.30;0.68;;;;;;;15.01;92.44;100490.22;5456734;26;20010;-67
2024/04/10 05:32:00;;;;;;;1.42;0.55;;;;;;;15.03;92.33;100495.28;5468497;26;20020;-67
2024/04/10 05:34:26;;;;;;;4.70;1.00;;;;;;;14.97;93.50;100498.59;5461342;26;20083;-67
2024/04/10 05:36:51;;;;;;;2.17;0.77;;;;;;;14.85;93.62;100495.53;5461459;26;20520;-67
2024/04/10 05:39:24;;;;;;;3.17;0.80;;;;;;;14.84;94.20;100497.34;5462194;26;20079;-67
2024/04/10 05:41:49;;;;;;;1.73;0.63;;;;;;;14.87;93.68;100498.78;5466854;26;20018;-68
2024/04/10 05:44:14;;;;;;;4.70;0.60;;;;;;;14.90;93.16;100501.91;5471667;26;20382;-68
2024/04/10 05:46:40;;;;;;;6.18;0.95;;;;;;;14.97;92.38;100504.66;5473992;26;20361;-68
2024/04/10 05:49:06;;;;;;;9.57;0.80;;;;;;;15.01;91.82;100511.19;5473390;26;20007;-68
2024/04/10 05:51:32;;;;;;;4.30;0.77;;;;;;;15.08;90.63;100511.34;5466517;26;20022;-69
2024/04/10 05:53:58;;;;;;;4.57;0.50;;;;;;;15.10;90.69;100510.16;5459735;26;20041;-68
2024/04/10 05:56:25;;;;;;;2.58;0.70;;;;;;;15.11;90.71;100510.97;5460491;26;20011;-68
2024/04/10 05:58:50;;;;;;;2.22;0.50;;;;;;;15.12;90.24;100513.41;5463556;26;20007;-68
2024/04/10 06:01:16;;;;;;;9.23;1.13;;;;;;;15.14;89.54;100514.06;5460266;26;20078;-67
2024/04/10 06:03:44;;;;;;;11.02;1.02;;;;;;;15.13;91.08;100522.09;5462136;26;20031;-67
2024/04/10 06:06:15;;;;;;;4.30;0.40;;;;;;;15.11;90.69;100531.97;5463472;26;20463;-68
2024/04/10 06:08:44;;;;;;;8.63;0.90;;;;;;;15.11;91.67;100537.22;5460861;26;20019;-67
2024/04/10 06:11:10;;;;;;;7.80;0.60;;;;;;;15.11;91.19;100543.28;5454676;26;20007;-67
2024/04/10 06:13:36;;;;;;;3.88;0.90;;;;;;;15.12;91.49;100546.75;5462146;26;20003;-68
2024/04/10 06:16:04;;;;;;;5.80;0.68;;;;;;;15.12;91.23;100544.91;5461892;26;20016;-68
2024/04/10 06:18:30;;;;;;;4.53;0.65;;;;;;;15.13;91.57;100540.47;5462480;26;20447;-67
2024/04/10 06:21:00;;;;;;;3.25;0.50;;;;;;;15.13;89.83;100541.28;5462680;26;20035;-67
2024/04/10 06:23:30;;;;;;;6.70;0.60;;;;;;;15.19;91.27;100555.53;5459155;26;20014;-68
2024/04/10 06:25:56;;;;;;;8.27;0.93;;;;;;;15.23;92.10;100554.19;5455218;26;20451;-68
2024/04/10 06:28:22;;;;;;;5.22;0.50;;;;;;;15.21;91.66;100551.75;5463120;26;20021;-68
2024/04/10 06:30:56;;;;;;;6.35;0.70;;;;;;;15.26;91.42;100556.47;5462502;26;20006;-68
2024/04/10 06:33:21;;;;;;;2.30;1.05;;;;;;;15.31;90.08;100554.16;5459278;26;20025;-68
2024/04/10 06:35:47;;;;;;;2.95;0.50;;;;;;;15.34;91.27;100548.56;5471131;26;20055;-67
2024/04/10 06:38:12;;;;;;;8.98;1.00;;;;;;;15.37;90.89;100558.72;5460874;26;20020;-68
2024/04/10 06:40:38;;;;;;;6.45;0.70;;;;;;;15.37;92.06;100569.22;5471842;26;20005;-67
2024/04/10 06:43:03;;;;;;;4.60;0.90;;;;;;;15.37;92.67;100576.28;5457116;26;20007;-68
2024/04/10 06:45:29;;;;;;;2.55;0.80;;;;;;;15.39;93.39;100582.19;5464676;26;20333;-68
2024/04/10 06:47:54;;;;;;;9.10;1.17;;;;;;;15.39;95.03;100572.50;5462371;26;20006;-67
2024/04/10 06:50:20;;;;;;;3.13;0.75;;;;;;;15.37;95.27;100571.03;5467023;26;20007;-68
2024/04/10 06:52:45;;;;;;;3.35;0.88;;;;;;;15.35;95.28;100573.00;5464314;26;20011;-67
2024/04/10 06:55:10;;;;;;;3.22;0.70;;;;;;;15.38;97.17;100573.47;5459117;26;20488;-67
2024/04/10 06:57:36;;;;;;;7.53;1.17;;;;;;;15.42;98.27;100582.66;5464637;26;20011;-68
2024/04/10 07:00:03;;;;;;;4.30;1.05;;;;;;;15.38;100.00;100586.59;5467963;26;20148;-68
2024/04/10 07:02:28;;;;;;;11.63;1.10;;;;;;;15.36;97.05;100580.72;5461403;26;20018;-67
2024/04/10 07:04:54;;;;;;;1.65;0.90;;;;;;;15.47;97.70;100579.50;5461032;26;20007;-67
2024/04/10 07:07:20;;;;;;;1.30;0.70;;;;;;;15.58;100.00;100579.16;5465038;26;20469;-68
2024/04/10 07:09:46;;;;;;;5.75;1.13;;;;;;;15.58;100.00;100572.09;5464140;26;20006;-67
2024/04/10 07:12:11;;;;;;;7.22;1.20;;;;;;;15.53;100.00;100574.38;5459033;26;20001;-67
2024/04/10 07:14:39;;;;;;;3.50;0.77;;;;;;;15.47;100.00;100577.69;5465980;26;20534;-67
2024/04/10 07:17:05;;;;;;;3.80;1.15;;;;;;;15.52;100.00;100578.00;5468241;26;20443;-67
2024/04/10 07:19:36;;;;;;;2.38;0.60;;;;;;;15.61;100.00;100578.78;5471153;26;20005;-67
2024/04/10 07:22:08;;;;;;;4.88;0.80;;;;;;;15.68;100.00;100578.88;5464412;26;20010;-68
2024/04/10 07:24:35;;;;;;;3.08;0.60;;;;;;;15.73;100.00;100566.88;5457898;26;20055;-68
2024/04/10 07:27:00;;;;;;;5.40;1.50;;;;;;;15.74;100.00;100586.06;5462335;26;20007;-68
2024/04/10 07:29:26;;;;;;;6.03;0.95;;;;;;;15.85;100.00;100589.13;5465737;26;20011;-68
2024/04/10 07:31:51;;;;;;;1.80;0.50;;;;;;;15.93;100.00;100590.88;5460249;26;20006;-67
2024/04/10 07:34:17;;;;;;;5.28;0.90;;;;;;;16.01;100.00;100584.75;5469553;26;20346;-68
2024/04/10 07:36:45;;;;;;;9.38;1.20;;;;;;;16.11;100.00;100583.47;5470310;26;20024;-68
2024/04/10 07:39:11;;;;;;;2.55;0.90;;;;;;;16.15;100.00;100584.75;5457999;26;20007;-68
2024/04/10 07:41:37;;;;;;;2.90;0.52;;;;;;;16.14;100.00;100587.56;5456639;26;20079;-69
2024/04/10 07:44:03;;;;;;;4.78;0.70;;;;;;;16.23;100.00;100597.00;5460798;26;20014;-67
2024/04/10 07:46:29;;;;;;;5.60;1.13;;;;;;;16.29;100.00;100596.31;5462078;26;20010;-68
2024/04/10 07:49:00;;;;;;;2.47;0.90;;;;;;;16.38;100.00;100607.56;5465135;26;20050;-68
2024/04/10 07:51:27;;;;;;;1.67;0.90;;;;;;;16.46;100.00;100600.44;5460536;26;20456;-68
2024/04/10 07:53:53;;;;;;;3.40;0.68;;;;;;;16.52;100.00;100606.78;5472453;26;20020;-68
2024/04/10 07:56:18;;;;;;;2.45;1.02;;;;;;;16.51;100.00;100610.41;5464012;26;20010;-68
2024/04/10 07:58:44;;;;;;;3.17;1.10;;;;;;;16.49;100.00;100607.97;5472625;26;20024;-68
2024/04/10 08:01:11;;;;;;;5.78;1.17;;;;;;;16.47;100.00;100620.47;5473206;26;20014;-68
2024/04/10 08:03:36;;;;;;;2.00;1.35;;;;;;;16.67;100.00;100602.34;5467996;26;20039;-68
2024/04/10 08:06:04;;;;;;;5.57;1.60;;;;;;;17.19;100.00;100609.31;5462117;26;20010;-68
2024/04/10 08:08:30;;;;;;;6.82;1.25;;;;;;;17.80;100.00;100602.75;5483498;26;20013;-68
2024/04/10 08:11:00;;;;;;;4.72;1.73;;;;;;;18.16;96.40;100610.56;5456951;26;20003;-68
2024/04/10 08:13:26;;;;;;;6.03;1.50;;;;;;;18.62;94.74;100612.75;5469174;26;20014;-68
2024/04/10 08:15:55;;;;;;;4.35;1.80;;;;;;;18.80;93.36;100621.00;5457988;26;20007;-68
2024/04/10 08:18:21;;;;;;;2.80;1.67;;;;;;;18.56;94.18;100619.56;5451789;26;20003;-67
2024/04/10 08:20:46;;;;;;;4.03;1.48;;;;;;;18.39;95.26;100618.25;5457043;26;20353;-71
2024/04/10 08:23:11;;;;;;;3.75;1.60;;;;;;;18.41;94.96;100623.34;5467844;26;20441;-68
2024/04/10 08:25:38;;;;;;;4.45;1.10;;;;;;;18.35;95.08;100635.47;5465013;26;20638;-68
2024/04/10 08:28:04;;;;;;;5.82;1.15;;;;;;;18.63;94.42;100645.22;5463265;26;20001;-68
2024/04/10 08:30:29;;;;;;;5.13;1.02;;;;;;;19.13;91.36;100646.75;5468235;26;20115;-68
2024/04/10 08:32:56;;;;;;;5.05;0.70;;;;;;;19.38;90.21;100652.31;5472079;26;20454;-67
2024/04/10 08:35:21;;;;;;;4.97;1.05;;;;;;;19.68;86.56;100655.50;5473573;26;20333;-68
2024/04/10 08:37:50;;;;;;;3.17;0.70;;;;;;;19.36;87.29;100657.84;5454705;26;20018;-68
2024/04/10 08:40:16;;;;;;;4.20;1.10;;;;;;;19.31;87.84;100657.59;5451554;26;20002;-68
2024/04/10 08:42:42;;;;;;;3.28;0.73;;;;;;;19.33;87.93;100652.13;5451228;26;20006;-67
2024/04/10 08:45:09;;;;;;;3.53;1.02;;;;;;;19.28;88.24;100654.53;5466292;26;20074;-68
2024/04/10 08:47:35;;;;;;;3.38;0.70;;;;;;;19.50;87.46;100654.19;5458720;26;20362;-67
2024/04/10 08:50:02;;;;;;;6.60;0.60;;;;;;;19.80;85.16;100659.22;5453410;26;20010;-68
2024/04/10 08:52:30;;;;;;;2.50;0.50;;;;;;;19.89;83.80;100653.50;5454519;26;20014;-68
2024/04/10 08:54:55;;;;;;;2.38;0.52;;;;;;;19.77;84.48;100654.31;5469466;26;20006;-68
2024/04/10 08:57:21;;;;;;;1.20;0.38;;;;;;;19.68;84.94;100647.59;5462807;26;20115;-68
2024/04/10 08:59:46;;;;;;;4.88;0.30;;;;;;;19.75;81.30;100649.25;5461065;26;20024;-67
2024/04/10 09:02:12;;;;;;;2.20;0.30;;;;;;;20.03;80.56;100643.78;5450084;26;20017;-68
2024/04/10 09:04:45;;;;;;;2.15;0.30;;;;;;;20.09;72.88;100648.25;5452032;26;20032;-67
2024/04/10 09:07:11;;;;;;;2.33;0.45;;;;;;;20.00;77.42;100636.25;5448387;26;20007;-68
2024/04/10 09:09:36;;;;;;;1.15;0.30;;;;;;;19.75;76.01;100635.22;5466345;26;20010;-68
2024/04/10 09:12:03;;;;;;;1.02;0.20;;;;;;;19.79;77.78;100637.25;5451414;26;20458;-68
2024/04/10 09:14:28;;;;;;;1.08;0.30;;;;;;;19.81;78.51;100644.97;5446877;26;20014;-68
2024/04/10 09:17:01;;;;;;;1.77;0.30;;;;;;;19.82;78.16;100651.91;5450601;26;20022;-68
2024/04/10 09:19:26;;;;;;;0.82;0.30;;;;;;;19.83;78.86;100656.16;5456160;26;20017;-68
2024/04/10 09:21:59;;;;;;;1.95;0.35;;;;;;;19.80;77.49;100660.03;5462294;26;20006;-68
2024/04/10 09:24:29;;;;;;;1.60;0.40;;;;;;;19.69;78.10;100657.97;5457300;26;20148;-68
2024/04/10 09:26:55;;;;;;;5.90;0.30;;;;;;;19.94;78.21;100665.31;5460662;26;20139;-68
2024/04/10 09:29:24;;;;;;;1.70;0.30;;;;;;;20.24;77.30;100671.88;5455936;26;20011;-68
2024/04/10 09:31:51;;;;;;;1.67;0.40;;;;;;;20.39;76.05;100664.56;5468686;26;20110;-68
2024/04/10 09:34:20;;;;;;;3.67;0.30;;;;;;;20.38;75.83;100664.78;5461498;26;20021;-68
2024/04/10 09:36:46;;;;;;;1.67;0.30;;;;;;;20.20;74.55;100665.38;5458901;26;20021;-68
2024/04/10 09:39:12;;;;;;;1.80;0.40;;;;;;;20.14;74.92;100674.94;5455453;26;20042;-69
2024/04/10 09:41:39;;;;;;;1.15;0.25;;;;;;;20.11;75.86;100677.16;5455836;26;20029;-68
2024/04/10 09:44:05;;;;;;;2.15;0.20;;;;;;;20.11;73.63;100688.56;5455227;26;20462;-70
2024/04/10 09:46:35;;;;;;;2.50;0.40;;;;;;;20.07;72.67;100682.03;5453628;26;20026;-68
2024/04/10 09:49:11;;;;;;;1.48;0.45;;;;;;;20.03;72.69;100686.09;5450744;26;20022;-67
2024/04/10 09:51:41;;;;;;;5.85;0.50;;;;;;;20.00;76.65;100683.84;5450758;26;20026;-68
2024/04/10 09:54:08;;;;;;;2.70;0.40;;;;;;;20.05;77.00;100678.78;5461008;26;20020;-68
2024/04/10 09:56:37;;;;;;;1.58;0.40;;;;;;;20.04;77.00;100684.25;5452836;26;20095;-68
2024/04/10 09:59:09;;;;;;;5.57;0.43;;;;;;;20.07;77.13;100692.63;5459086;26;20427;-68
2024/04/10 10:01:37;;;;;;;1.83;0.30;;;;;;;20.11;77.87;100696.50;5454370;26;20013;-67
2024/04/10 10:04:02;;;;;;;1.25;0.30;;;;;;;20.18;76.95;100699.97;5452186;26;20023;-68
2024/04/10 10:06:30;;;;;;;0.85;0.30;;;;;;;20.15;76.96;100708.31;5461460;26;20029;-68
2024/04/10 10:08:56;;;;;;;4.82;0.75;;;;;;;20.11;76.03;100708.91;5462146;26;20014;-68
2024/04/10 10:11:22;;;;;;;3.42;0.40;;;;;;;20.04;76.09;100711.53;5463177;26;20341;-67
2024/04/10 10:14:06;;;;;;;3.88;0.25;;;;;;;19.97;73.76;100708.03;5465433;26;20341;-67
2024/04/10 10:16:32;;;;;;;2.50;0.30;;;;;;;20.00;76.22;100712.13;5463331;26;20422;-68
2024/04/10 10:18:59;;;;;;;1.35;0.28;;;;;;;20.08;76.39;100714.59;5454183;26;20011;-67
2024/04/10 10:21:27;;;;;;;3.53;0.30;;;;;;;19.86;73.89;100722.66;5460620;26;20472;-67
2024/04/10 10:24:03;;;;;;;4.22;0.28;;;;;;;19.69;72.08;100712.66;5466417;26;20765;-68
2024/04/10 10:26:28;;;;;;;2.22;0.38;;;;;;;19.64;72.27;100718.53;5463215;26;20480;-67
2024/04/10 10:29:04;;;;;;;2.08;0.28;;;;;;;19.59;70.79;100725.41;5458762;26;20011;-67
2024/04/10 10:31:30;;;;;;;5.95;0.40;;;;;;;19.64;73.30;100730.94;5467156;26;20450;-67
2024/04/10 10:34:00;;;;;;;4.03;0.35;;;;;;;19.55;72.49;100741.66;5456680;26;20026;-67
2024/04/10 10:36:25;;;;;;;6.75;0.30;;;;;;;19.50;72.95;100744.03;5453775;26;20025;-68
2024/04/10 10:39:10;;;;;;;3.25;0.30;;;;;;;19.41;69.82;100742.56;5463356;26;20010;-67
2024/04/10 10:41:35;;;;;;;4.30;0.30;;;;;;;19.37;71.77;100749.28;5463825;26;20030;-67
2024/04/10 10:44:01;;;;;;;3.33;0.88;;;;;;;19.34;70.52;100749.69;5464445;26;20017;-67
2024/04/10 10:46:31;;;;;;;9.00;0.93;;;;;;;19.40;70.40;100754.16;5464284;26;20562;-67
2024/04/10 10:48:57;;;;;;;3.97;0.60;;;;;;;19.33;71.41;100758.59;5455428;26;20011;-67
2024/04/10 10:51:25;;;;;;;3.58;1.00;;;;;;;19.25;72.60;100757.94;5460725;26;20030;-72
2024/04/10 10:53:53;;;;;;;3.20;0.50;;;;;;;19.15;67.35;100760.94;5452940;26;20460;-71
2024/04/10 10:56:32;;;;;;;4.22;0.30;;;;;;;19.30;66.88;100766.09;5451915;26;20011;-73
2024/04/10 10:59:08;;;;;;;2.95;0.40;;;;;;;19.28;68.76;100758.38;5452573;26;20013;-73
2024/04/10 11:01:34;;;;;;;1.42;0.38;;;;;;;19.29;69.92;100767.94;5465291;26;20025;-71
2024/04/10 11:04:08;;;;;;;7.50;0.88;;;;;;;19.47;62.88;100762.94;5452070;26;20010;-74
2024/04/10 11:06:33;;;;;;;2.72;0.40;;;;;;;19.68;61.71;100772.63;5457319;26;20014;-72
2024/04/10 11:09:06;;;;;;;1.92;0.30;;;;;;;19.69;61.12;100787.47;5456469;26;20024;-72
2024/04/10 11:11:31;;;;;;;2.88;0.43;;;;;;;19.66;58.43;100787.06;5451731;26;20079;-73
2024/04/10 11:13:57;;;;;;;3.20;0.40;;;;;;;19.68;61.60;100779.75;5453127;26;20011;-72
2024/04/10 11:16:31;;;;;;;11.43;0.50;;;;;;;19.65;58.30;100798.63;5461040;26;20011;-75
2024/04/10 11:18:57;;;;;;;2.50;0.40;;;;;;;19.68;60.72;100785.03;5461752;26;20025;-71